createdAt,value
2023-09-04T00:02:10.940Z,69.30
2023-09-04T00:04:38.057Z,69.40
2023-09-04T00:07:05.183Z,69.40
2023-09-04T00:09:32.177Z,69.50
2023-09-04T00:11:59.134Z,69.60
2023-09-04T00:14:26.239Z,69.60
2023-09-04T00:16:53.086Z,69.70
2023-09-04T00:19:19.990Z,69.70
2023-09-04T00:21:46.914Z,69.70
2023-09-04T00:24:13.690Z,69.80
2023-09-04T00:26:40.774Z,69.80
2023-09-04T00:29:07.943Z,69.90
2023-09-04T00:31:34.823Z,70.00
2023-09-04T00:34:01.700Z,70.10
2023-09-04T00:36:28.581Z,70.10
2023-09-04T00:38:55.435Z,70.20
2023-09-04T00:41:22.820Z,70.20
2023-09-04T00:43:49.828Z,70.20
2023-09-04T00:46:16.869Z,70.30
2023-09-04T00:48:44.533Z,70.40
2023-09-04T00:51:11.771Z,70.40
2023-09-04T00:53:40.130Z,70.50
2023-09-04T00:56:08.418Z,70.50
2023-09-04T00:58:35.913Z,70.60
2023-09-04T01:01:03.766Z,70.60
2023-09-04T01:03:32.050Z,70.70
2023-09-04T01:06:00.814Z,70.80
2023-09-04T01:08:27.821Z,70.80
2023-09-04T01:11:13.750Z,70.80
2023-09-04T01:13:55.511Z,71.00
2023-09-04T01:16:23.145Z,71.00
2023-09-04T01:18:51.909Z,71.00
2023-09-04T01:21:18.924Z,71.00
2023-09-04T01:23:45.837Z,71.00
2023-09-04T01:26:47.707Z,71.20
2023-09-04T01:30:08.470Z,71.40
2023-09-04T01:32:42.550Z,71.30
2023-09-04T01:35:12.394Z,71.20
2023-09-04T01:37:40.473Z,71.30
2023-09-04T01:40:08.715Z,71.30
2023-09-04T01:42:37.904Z,71.40
2023-09-04T01:45:05.124Z,71.50
2023-09-04T01:47:32.149Z,71.50
2023-09-04T01:49:58.922Z,71.60
2023-09-04T01:52:25.788Z,71.60
2023-09-04T01:54:52.634Z,71.60
2023-09-04T01:57:19.512Z,71.60
2023-09-04T01:59:46.307Z,71.60
2023-09-04T02:02:13.102Z,71.80
2023-09-04T02:04:40.545Z,71.80
2023-09-04T02:07:08.164Z,72.00
2023-09-04T02:09:35.326Z,72.00
2023-09-04T02:12:02.133Z,72.00
2023-09-04T02:14:29.278Z,72.00
2023-09-04T02:16:56.199Z,72.10
2023-09-04T02:19:23.221Z,72.10
2023-09-04T02:21:50.046Z,72.10
2023-09-04T02:24:16.836Z,72.10
2023-09-04T02:26:43.724Z,72.30
2023-09-04T02:29:10.540Z,72.40
2023-09-04T02:31:37.370Z,72.50
2023-09-04T02:34:04.272Z,72.60
2023-09-04T02:36:31.953Z,72.70
2023-09-04T02:38:58.823Z,72.70
2023-09-04T02:41:25.658Z,72.80
2023-09-04T02:43:52.543Z,72.80
2023-09-04T02:46:19.331Z,72.80
2023-09-04T02:48:46.727Z,72.90
2023-09-04T02:51:13.560Z,72.90
2023-09-04T02:53:40.347Z,73.00
2023-09-04T02:56:07.367Z,73.00
2023-09-04T02:58:34.248Z,73.10
2023-09-04T03:01:01.030Z,73.20
2023-09-04T03:03:27.993Z,73.20
2023-09-04T03:05:54.930Z,73.20
2023-09-04T03:08:22.515Z,73.30
2023-09-04T03:10:50.285Z,73.30
2023-09-04T03:13:17.776Z,73.30
2023-09-04T03:15:44.758Z,73.30
2023-09-04T03:18:12.048Z,73.40
2023-09-04T03:20:39.453Z,73.50
2023-09-04T03:23:06.310Z,73.50
2023-09-04T03:25:33.694Z,73.50
2023-09-04T03:28:00.641Z,73.40
2023-09-04T03:30:27.638Z,73.50
2023-09-04T03:32:55.038Z,73.50
2023-09-04T03:35:21.943Z,73.60
2023-09-04T03:37:49.878Z,73.60
2023-09-04T03:40:24.364Z,73.70
2023-09-04T03:42:52.654Z,73.80
2023-09-04T03:45:20.339Z,73.80
2023-09-04T03:47:48.358Z,73.80
2023-09-04T03:50:15.526Z,73.90
2023-09-04T03:52:44.314Z,73.90
2023-09-04T03:55:12.193Z,74.00
2023-09-04T03:57:40.346Z,74.10
2023-09-04T04:00:18.176Z,74.10
2023-09-04T04:02:49.115Z,74.10
2023-09-04T04:05:17.345Z,74.10
2023-09-04T04:07:45.329Z,74.10
2023-09-04T04:10:12.406Z,74.00
2023-09-04T04:12:39.568Z,74.10
2023-09-04T04:15:07.716Z,74.10
2023-09-04T04:17:35.603Z,74.10
2023-09-04T04:20:08.027Z,74.10
2023-09-04T04:22:35.006Z,74.20
2023-09-04T04:25:01.865Z,74.20
2023-09-04T04:27:28.762Z,74.30
2023-09-04T04:29:56.677Z,74.30
2023-09-04T04:32:26.613Z,74.30
2023-09-04T04:34:53.462Z,74.40
2023-09-04T04:37:21.201Z,74.50
2023-09-04T04:39:48.456Z,74.70
2023-09-04T04:42:15.340Z,74.80
2023-09-04T04:44:42.532Z,75.00
2023-09-04T04:47:09.378Z,75.00
2023-09-04T04:49:36.786Z,75.00
2023-09-04T04:52:03.840Z,75.10
2023-09-04T04:54:30.684Z,75.30
2023-09-04T04:56:57.486Z,75.20
2023-09-04T04:59:24.477Z,75.30
2023-09-04T05:01:51.237Z,75.30
2023-09-04T05:04:18.227Z,75.20
2023-09-04T05:06:47.299Z,75.30
2023-09-04T05:09:14.662Z,75.30
2023-09-04T05:11:41.611Z,75.40
2023-09-04T05:14:08.813Z,75.60
2023-09-04T05:16:35.699Z,75.70
2023-09-04T05:19:02.548Z,75.90
2023-09-04T05:21:29.846Z,76.10
2023-09-04T05:23:58.742Z,76.10
2023-09-04T05:26:26.057Z,76.20
2023-09-04T05:28:52.836Z,76.30
2023-09-04T05:31:19.975Z,76.40
2023-09-04T05:33:47.138Z,76.40
2023-09-04T05:36:13.982Z,76.50
2023-09-04T05:38:41.131Z,76.60
2023-09-04T05:41:08.043Z,76.70
2023-09-04T05:43:34.917Z,76.70
2023-09-04T05:46:01.775Z,76.70
2023-09-04T05:48:29.912Z,76.60
2023-09-04T05:50:56.736Z,76.60
2023-09-04T05:53:25.335Z,76.70
2023-09-04T05:56:12.700Z,76.70
2023-09-04T05:58:50.056Z,76.70
2023-09-04T06:01:18.214Z,76.80
2023-09-04T06:03:46.581Z,76.70
2023-09-04T06:06:14.190Z,76.80
2023-09-04T06:08:41.010Z,76.90
2023-09-04T06:11:08.146Z,76.90
2023-09-04T06:13:35.012Z,77.00
2023-09-04T06:16:02.793Z,77.00
2023-09-04T06:18:30.832Z,77.10
2023-09-04T06:20:58.396Z,77.10
2023-09-04T06:23:25.998Z,77.10
2023-09-04T06:25:52.987Z,77.10
2023-09-04T06:28:19.821Z,77.20
2023-09-04T06:30:46.842Z,77.20
2023-09-04T06:33:13.955Z,77.20
2023-09-04T06:35:40.683Z,77.20
2023-09-04T06:38:08.220Z,77.20
2023-09-04T06:40:35.048Z,77.30
2023-09-04T06:43:01.907Z,77.20
2023-09-04T06:45:28.827Z,77.30
2023-09-04T06:47:55.745Z,77.30
2023-09-04T06:50:22.618Z,77.40
2023-09-04T06:52:49.523Z,77.40
2023-09-04T06:55:16.985Z,77.40
2023-09-04T06:57:43.966Z,77.40
2023-09-04T07:00:12.233Z,77.30
2023-09-04T07:02:39.411Z,77.10
2023-09-04T07:05:08.777Z,77.20
2023-09-04T07:07:36.658Z,77.10
2023-09-04T07:10:07.358Z,77.00
2023-09-04T07:12:36.769Z,76.90
2023-09-04T07:15:04.457Z,76.80
2023-09-04T07:17:31.458Z,76.70
2023-09-04T07:19:58.488Z,76.80
2023-09-04T07:22:28.366Z,76.70
2023-09-04T07:24:55.233Z,76.60
2023-09-04T07:27:22.152Z,76.50
2023-09-04T07:29:48.926Z,76.30
2023-09-04T07:32:15.799Z,76.00
2023-09-04T07:34:42.617Z,75.80
2023-09-04T07:37:09.481Z,75.60
2023-09-04T07:39:37.256Z,75.60
2023-09-04T07:42:04.636Z,75.10
2023-09-04T07:44:32.854Z,75.40
2023-09-04T07:46:59.793Z,76.20
2023-09-04T07:49:26.609Z,77.20
2023-09-04T07:51:54.611Z,77.80
2023-09-04T07:54:22.595Z,78.10
2023-09-04T07:56:49.505Z,78.00
2023-09-04T07:59:16.385Z,75.50
2023-09-04T08:01:43.242Z,72.70
2023-09-04T08:04:10.267Z,71.60
2023-09-04T08:06:37.301Z,70.80
2023-09-04T08:09:04.307Z,69.60
2023-09-04T08:11:31.460Z,69.00
2023-09-04T08:13:58.562Z,67.50
2023-09-04T08:16:25.697Z,65.50
2023-09-04T08:18:52.553Z,63.10
2023-09-04T08:21:19.691Z,61.50
2023-09-04T08:23:46.618Z,60.10
2023-09-04T08:26:16.793Z,59.10
2023-09-04T08:28:44.122Z,56.90
2023-09-04T08:31:11.754Z,56.40
2023-09-04T08:33:38.601Z,55.70
2023-09-04T08:36:05.540Z,54.80
2023-09-04T08:38:32.576Z,53.60
2023-09-04T08:41:04.358Z,52.80
2023-09-04T08:43:32.684Z,51.00
2023-09-04T08:46:07.112Z,50.70
2023-09-04T08:48:40.796Z,49.80
2023-09-04T08:51:08.559Z,48.90
2023-09-04T08:53:37.038Z,48.40
2023-09-04T08:56:05.475Z,46.40
2023-09-04T08:58:32.361Z,45.30
2023-09-04T09:00:59.701Z,44.90
2023-09-04T09:03:27.322Z,44.60
2023-09-04T09:05:57.430Z,44.20
2023-09-04T09:08:25.481Z,43.20
2023-09-04T09:10:53.260Z,42.90
2023-09-04T09:13:20.816Z,42.00
2023-09-04T09:15:48.111Z,41.20
2023-09-04T09:18:35.799Z,40.20
2023-09-04T09:21:02.657Z,39.10
2023-09-04T09:23:31.207Z,39.10
2023-09-04T09:25:58.020Z,39.40
2023-09-04T09:28:25.129Z,39.50
2023-09-04T09:30:52.226Z,39.60
2023-09-04T09:33:22.310Z,40.00
2023-09-04T09:35:49.208Z,38.80
2023-09-04T09:38:16.059Z,38.00
2023-09-04T09:40:45.512Z,37.60
2023-09-04T09:43:12.486Z,37.00
2023-09-04T09:45:39.469Z,36.80
2023-09-04T09:48:07.719Z,36.10
2023-09-04T09:50:38.575Z,35.70
2023-09-04T09:53:06.107Z,35.30
2023-09-04T09:55:35.006Z,35.20
2023-09-04T09:58:02.797Z,35.50
2023-09-04T10:00:30.336Z,35.30
2023-09-04T10:02:58.637Z,35.30
2023-09-04T10:05:27.094Z,35.30
2023-09-04T10:08:01.861Z,35.00
2023-09-04T10:10:33.017Z,34.50
2023-09-04T10:13:16.436Z,34.40
2023-09-04T10:15:48.395Z,33.30
2023-09-04T10:18:29.476Z,33.20
2023-09-04T10:20:58.632Z,32.70
2023-09-04T10:23:32.624Z,32.90
2023-09-04T10:26:25.398Z,33.40
2023-09-04T10:29:06.185Z,33.60
2023-09-04T10:31:36.571Z,33.50
2023-09-04T10:34:04.259Z,33.30
2023-09-04T10:36:32.216Z,32.70
2023-09-04T10:39:00.718Z,32.70
2023-09-04T10:41:29.465Z,32.40
2023-09-04T10:43:56.366Z,32.20
2023-09-04T10:46:24.516Z,31.80
2023-09-04T10:48:52.826Z,31.90
2023-09-04T10:51:33.974Z,31.50
2023-09-04T10:54:15.865Z,31.00
2023-09-04T10:57:01.977Z,31.10
2023-09-04T10:59:29.372Z,31.00
2023-09-04T11:01:56.800Z,30.80
2023-09-04T11:04:35.917Z,30.90
2023-09-04T11:07:26.542Z,31.00
2023-09-04T11:09:54.971Z,31.20
2023-09-04T11:12:25.539Z,31.00
2023-09-04T11:14:56.524Z,30.90
2023-09-04T11:17:27.923Z,31.00
2023-09-04T11:19:54.910Z,30.80
2023-09-04T11:22:23.260Z,30.50
2023-09-04T11:24:54.260Z,30.20
2023-09-04T11:27:22.282Z,29.80
2023-09-04T11:29:49.914Z,29.70
2023-09-04T11:32:18.129Z,29.60
2023-09-04T11:34:50.316Z,30.20
2023-09-04T11:37:17.519Z,30.60
2023-09-04T11:40:00.694Z,30.30
2023-09-04T11:42:32.064Z,29.30
2023-09-04T11:44:59.060Z,29.50
2023-09-04T11:47:26.318Z,30.10
2023-09-04T11:49:53.142Z,30.30
2023-09-04T11:52:25.008Z,29.70
2023-09-04T11:54:53.871Z,28.90
2023-09-04T11:57:21.857Z,28.50
2023-09-04T11:59:48.855Z,27.90
2023-09-04T12:02:16.017Z,27.80
2023-09-04T12:04:44.312Z,27.60
2023-09-04T12:07:13.500Z,27.90
2023-09-04T12:09:41.929Z,28.30
2023-09-04T12:12:09.335Z,27.80
2023-09-04T12:14:43.101Z,28.00
2023-09-04T12:17:11.874Z,27.70
2023-09-04T12:19:39.121Z,27.90
2023-09-04T12:22:13.881Z,27.30
2023-09-04T12:24:41.088Z,27.60
2023-09-04T12:27:10.078Z,27.80
2023-09-04T12:29:37.001Z,27.70
2023-09-04T12:32:04.867Z,27.70
2023-09-04T12:34:32.497Z,27.20
2023-09-04T12:36:59.597Z,27.70
2023-09-04T12:39:26.582Z,28.30
2023-09-04T12:41:56.541Z,27.90
2023-09-04T12:44:23.563Z,27.50
2023-09-04T12:46:50.515Z,27.70
2023-09-04T12:49:18.129Z,27.30
2023-09-04T12:51:44.948Z,26.80
2023-09-04T12:54:11.727Z,26.50
2023-09-04T12:56:39.379Z,26.50
2023-09-04T12:59:06.198Z,25.90
2023-09-04T13:01:33.273Z,26.70
2023-09-04T13:04:00.292Z,26.90
2023-09-04T13:06:31.544Z,26.50
2023-09-04T13:08:59.204Z,26.80
2023-09-04T13:11:26.342Z,26.50
2023-09-04T13:13:53.224Z,26.70
2023-09-04T13:16:22.805Z,26.80
2023-09-04T13:18:49.771Z,26.70
2023-09-04T13:21:16.681Z,27.00
2023-09-04T13:23:43.476Z,27.10
2023-09-04T13:26:10.305Z,27.40
2023-09-04T13:28:37.239Z,27.30
2023-09-04T13:31:04.135Z,27.80
2023-09-04T13:33:31.064Z,28.50
2023-09-04T13:35:58.067Z,29.10
2023-09-04T13:38:25.110Z,30.20
2023-09-04T13:40:52.011Z,30.90
2023-09-04T13:43:18.801Z,30.90
2023-09-04T13:45:45.667Z,31.70
2023-09-04T13:48:13.086Z,31.00
2023-09-04T13:50:40.403Z,30.20
2023-09-04T13:53:07.935Z,30.10
2023-09-04T13:55:35.463Z,31.00
2023-09-04T13:58:02.370Z,31.60
2023-09-04T14:00:29.263Z,31.10
2023-09-04T14:02:56.289Z,31.00
2023-09-04T14:05:23.626Z,31.20
2023-09-04T14:07:50.578Z,31.10
2023-09-04T14:10:17.500Z,31.50
2023-09-04T14:12:44.389Z,31.90
2023-09-04T14:15:12.208Z,31.60
2023-09-04T14:17:39.374Z,31.10
2023-09-04T14:20:06.862Z,30.50
2023-09-04T14:22:33.763Z,30.60
2023-09-04T14:25:00.553Z,30.60
2023-09-04T14:27:27.467Z,30.50
2023-09-04T14:29:54.337Z,30.60
2023-09-04T14:32:21.390Z,30.30
2023-09-04T14:34:48.228Z,29.80
2023-09-04T14:37:18.333Z,30.10
2023-09-04T14:39:45.655Z,30.80
2023-09-04T14:42:12.602Z,31.40
2023-09-04T14:44:39.475Z,30.80
2023-09-04T14:47:06.432Z,30.60
2023-09-04T14:49:33.393Z,30.60
2023-09-04T14:52:00.231Z,30.70
2023-09-04T14:54:27.601Z,30.80
2023-09-04T14:56:54.436Z,31.30
2023-09-04T14:59:21.283Z,31.60
2023-09-04T15:01:48.233Z,31.90
2023-09-04T15:04:15.090Z,32.20
2023-09-04T15:06:43.342Z,32.30
2023-09-04T15:09:10.223Z,32.60
2023-09-04T15:11:37.201Z,32.80
2023-09-04T15:14:04.222Z,32.80
2023-09-04T15:16:31.060Z,32.80
2023-09-04T15:18:57.820Z,33.00
2023-09-04T15:21:24.594Z,33.30
2023-09-04T15:23:51.468Z,33.60
2023-09-04T15:26:18.376Z,34.20
2023-09-04T15:28:45.191Z,34.10
2023-09-04T15:31:12.084Z,34.20
2023-09-04T15:33:39.218Z,34.80
2023-09-04T15:36:06.419Z,34.90
2023-09-04T15:38:36.489Z,35.20
2023-09-04T15:41:04.163Z,35.20
2023-09-04T15:43:31.070Z,35.50
2023-09-04T15:45:59.371Z,35.00
2023-09-04T15:48:27.015Z,35.10
2023-09-04T15:50:54.315Z,35.20
2023-09-04T15:53:24.074Z,35.00
2023-09-04T15:55:56.042Z,34.90
2023-09-04T15:58:23.913Z,34.80
2023-09-04T16:00:51.162Z,35.10
2023-09-04T16:03:20.509Z,35.40
2023-09-04T16:05:49.193Z,35.40
2023-09-04T16:08:16.248Z,35.40
2023-09-04T16:10:43.177Z,35.50
2023-09-04T16:13:24.490Z,35.90
2023-09-04T16:15:53.564Z,36.30
2023-09-04T16:18:20.502Z,36.20
2023-09-04T16:20:47.563Z,36.50
2023-09-04T16:23:17.738Z,36.60
2023-09-04T16:25:45.111Z,36.90
2023-09-04T16:28:12.545Z,37.10
2023-09-04T16:30:40.520Z,37.90
2023-09-04T16:33:12.463Z,38.20
2023-09-04T16:35:39.611Z,38.50
2023-09-04T16:38:06.404Z,38.80
2023-09-04T16:40:33.352Z,39.10
2023-09-04T16:43:02.030Z,39.30
2023-09-04T16:45:28.901Z,39.40
2023-09-04T16:47:55.842Z,39.30
2023-09-04T16:50:22.794Z,39.50
2023-09-04T16:52:49.635Z,40.10
2023-09-04T16:55:16.581Z,40.20
2023-09-04T16:57:43.401Z,40.80
2023-09-04T17:00:11.614Z,41.40
2023-09-04T17:02:38.537Z,41.80
2023-09-04T17:05:07.172Z,42.30
2023-09-04T17:07:34.774Z,42.90
2023-09-04T17:10:01.677Z,43.40
2023-09-04T17:12:30.018Z,43.70
2023-09-04T17:14:56.878Z,43.90
2023-09-04T17:17:23.726Z,44.70
2023-09-04T17:19:50.618Z,44.90
2023-09-04T17:22:17.830Z,45.20
2023-09-04T17:24:44.658Z,45.50
2023-09-04T17:27:11.504Z,45.60
2023-09-04T17:29:38.308Z,45.70
2023-09-04T17:32:05.681Z,45.90
2023-09-04T17:34:32.566Z,46.30
2023-09-04T17:36:59.339Z,46.50
2023-09-04T17:39:27.358Z,46.90
2023-09-04T17:41:54.495Z,47.10
2023-09-04T17:44:21.439Z,47.20
2023-09-04T17:46:48.318Z,47.90
2023-09-04T17:49:15.229Z,48.30
2023-09-04T17:51:42.180Z,48.20
2023-09-04T17:54:09.100Z,48.50
2023-09-04T17:56:36.037Z,48.70
2023-09-04T17:59:02.954Z,48.70
2023-09-04T18:01:30.674Z,49.00
2023-09-04T18:03:57.659Z,49.20
2023-09-04T18:06:24.704Z,49.50
2023-09-04T18:08:51.559Z,49.80
2023-09-04T18:11:20.296Z,50.10
2023-09-04T18:13:47.296Z,50.40
2023-09-04T18:16:14.195Z,50.60
2023-09-04T18:18:41.161Z,51.00
2023-09-04T18:21:08.822Z,51.20
2023-09-04T18:23:36.731Z,51.40
2023-09-04T18:26:03.572Z,51.70
2023-09-04T18:28:30.356Z,51.80
2023-09-04T18:30:57.319Z,51.90
2023-09-04T18:33:24.163Z,52.00
2023-09-04T18:35:51.137Z,52.20
2023-09-04T18:38:17.951Z,52.40
2023-09-04T18:40:45.730Z,52.60
2023-09-04T18:43:12.689Z,52.70
2023-09-04T18:45:43.881Z,52.80
2023-09-04T18:48:11.148Z,53.00
2023-09-04T18:50:38.077Z,53.20
2023-09-04T18:53:05.758Z,53.40
2023-09-04T18:55:32.781Z,53.60
2023-09-04T18:57:59.646Z,53.80
2023-09-04T19:00:26.539Z,54.10
2023-09-04T19:02:53.471Z,54.20
2023-09-04T19:05:20.292Z,54.30
2023-09-04T19:07:47.284Z,54.40
2023-09-04T19:10:14.096Z,54.80
2023-09-04T19:12:41.422Z,54.90
2023-09-04T19:15:08.580Z,55.10
2023-09-04T19:17:35.411Z,55.40
2023-09-04T19:20:02.228Z,55.40
2023-09-04T19:22:29.132Z,55.40
2023-09-04T19:24:56.074Z,55.60
2023-09-04T19:27:24.450Z,55.80
2023-09-04T19:29:51.369Z,55.70
2023-09-04T19:32:18.354Z,56.00
2023-09-04T19:34:45.158Z,56.20
2023-09-04T19:37:11.969Z,56.40
2023-09-04T19:39:44.283Z,56.40
2023-09-04T19:42:13.453Z,56.60
2023-09-04T19:44:40.229Z,56.70
2023-09-04T19:47:06.994Z,56.90
2023-09-04T19:49:33.874Z,57.10
2023-09-04T19:52:00.621Z,57.20
2023-09-04T19:54:27.435Z,57.40
2023-09-04T19:56:54.317Z,57.50
2023-09-04T19:59:21.148Z,57.70
2023-09-04T20:01:48.097Z,57.80
2023-09-04T20:04:14.970Z,57.90
2023-09-04T20:06:41.762Z,58.00
2023-09-04T20:09:10.640Z,58.10
2023-09-04T20:11:38.296Z,58.30
2023-09-04T20:14:06.095Z,58.40
2023-09-04T20:16:33.375Z,58.50
2023-09-04T20:19:00.999Z,58.60
2023-09-04T20:21:27.875Z,58.80
2023-09-04T20:23:56.641Z,58.90
2023-09-04T20:26:29.005Z,59.10
2023-09-04T20:29:02.359Z,59.20
2023-09-04T20:31:29.259Z,59.30
2023-09-04T20:33:56.189Z,59.40
2023-09-04T20:36:23.051Z,59.50
2023-09-04T20:38:50.143Z,59.70
2023-09-04T20:41:19.719Z,59.80
2023-09-04T20:43:46.541Z,60.00
2023-09-04T20:46:16.239Z,60.20
2023-09-04T20:48:43.422Z,60.40
2023-09-04T20:51:10.278Z,60.30
2023-09-04T20:53:37.089Z,60.40
2023-09-04T20:56:04.374Z,60.40
2023-09-04T20:58:31.350Z,60.50
2023-09-04T21:00:58.221Z,60.60
2023-09-04T21:03:25.353Z,60.70
2023-09-04T21:06:02.614Z,60.80
2023-09-04T21:08:29.910Z,61.10
2023-09-04T21:10:56.770Z,61.00
2023-09-04T21:13:42.955Z,61.10
2023-09-04T21:16:28.643Z,61.10
2023-09-04T21:19:13.820Z,61.20
2023-09-04T21:21:59.438Z,61.30
2023-09-04T21:24:45.121Z,61.50
2023-09-04T21:27:30.435Z,61.60
2023-09-04T21:30:16.013Z,61.80
2023-09-04T21:33:04.273Z,61.90
2023-09-04T21:35:50.553Z,62.00
2023-09-04T21:38:36.236Z,62.20
2023-09-04T21:41:21.891Z,62.30
2023-09-04T21:44:07.428Z,62.40
2023-09-04T21:46:52.921Z,62.50
2023-09-04T21:49:38.520Z,62.60
2023-09-04T21:52:24.515Z,62.70
2023-09-04T21:55:10.208Z,62.90
2023-09-04T21:57:55.752Z,63.00
2023-09-04T22:00:41.316Z,63.20
2023-09-04T22:03:27.509Z,63.30
2023-09-04T22:06:20.087Z,63.30
2023-09-04T22:09:05.799Z,63.50
2023-09-04T22:11:51.282Z,63.40
2023-09-04T22:14:36.896Z,63.50
2023-09-04T22:17:22.366Z,63.70
2023-09-04T22:20:08.103Z,63.90
2023-09-04T22:22:53.831Z,64.00
2023-09-04T22:25:39.348Z,64.10
2023-09-04T22:28:24.814Z,64.10
2023-09-04T22:31:10.420Z,64.30
2023-09-04T22:33:55.807Z,64.40
2023-09-04T22:36:41.357Z,64.70
2023-09-04T22:39:27.042Z,64.80
2023-09-04T22:42:12.665Z,64.90
2023-09-04T22:44:58.169Z,65.00
2023-09-04T22:47:43.846Z,65.00
2023-09-04T22:50:29.348Z,65.00
2023-09-04T22:53:14.916Z,65.10
2023-09-04T22:56:00.539Z,65.20
2023-09-04T22:58:46.101Z,65.30
2023-09-04T23:01:31.845Z,65.30
2023-09-04T23:04:17.405Z,65.30
2023-09-04T23:07:02.961Z,65.40
2023-09-04T23:09:48.500Z,65.70
2023-09-04T23:12:34.150Z,65.80
2023-09-04T23:15:19.824Z,65.80
2023-09-04T23:18:05.511Z,65.90
2023-09-04T23:20:50.982Z,66.00
2023-09-04T23:23:19.112Z,66.00
2023-09-04T23:25:49.254Z,66.10
2023-09-04T23:28:19.199Z,66.40
2023-09-04T23:30:53.657Z,66.50
2023-09-04T23:33:36.774Z,66.50
2023-09-04T23:36:16.591Z,66.50
2023-09-04T23:39:02.937Z,66.60
2023-09-04T23:41:48.471Z,66.70
2023-09-04T23:44:34.020Z,66.80
2023-09-04T23:47:01.644Z,67.00
2023-09-04T23:49:31.129Z,67.00
2023-09-04T23:51:58.916Z,67.00
2023-09-04T23:54:30.006Z,67.00
2023-09-04T23:56:57.509Z,67.10
2023-09-04T23:59:26.380Z,67.10
